createdAt,value
2019-04-22T00:01:45.594Z,27.49
2019-04-22T00:04:33.786Z,27.94
2019-04-22T00:07:15.616Z,28.29
2019-04-22T00:09:51.745Z,27.97
2019-04-22T00:12:27.751Z,28.12
2019-04-22T00:14:55.496Z,27.81
2019-04-22T00:17:38.808Z,28.04
2019-04-22T00:22:38.642Z,28.01
2019-04-22T00:25:17.917Z,28.01
2019-04-22T00:30:22.594Z,27.67
2019-04-22T00:33:16.488Z,28.01
2019-04-22T00:35:48.122Z,27.50
2019-04-22T00:38:26.546Z,27.54
2019-04-22T00:41:00.885Z,27.91
2019-04-22T00:43:42.209Z,27.61
2019-04-22T00:46:19.670Z,28.01
2019-04-22T00:48:57.600Z,28.01
2019-04-22T00:51:22.615Z,27.88
2019-04-22T00:53:54.624Z,28.75
2019-04-22T00:56:30.882Z,27.95
2019-04-22T00:58:59.132Z,28.43
2019-04-22T01:01:40.647Z,28.13
2019-04-22T01:06:48.936Z,28.40
2019-04-22T01:09:17.336Z,28.55
2019-04-22T01:11:52.607Z,28.55
2019-04-22T01:14:29.409Z,28.34
2019-04-22T01:17:09.324Z,28.71
2019-04-22T01:22:39.365Z,28.46
2019-04-22T01:24:56.414Z,29.11
2019-04-22T01:27:26.339Z,29.04
2019-04-22T01:29:55.574Z,28.66
2019-04-22T01:32:52.079Z,29.04
2019-04-22T01:35:49.252Z,29.49
2019-04-22T01:39:09.182Z,30.14
2019-04-22T01:42:05.986Z,30.27
2019-04-22T01:44:40.539Z,30.30
2019-04-22T01:47:18.586Z,31.09
2019-04-22T01:49:52.754Z,31.09
2019-04-22T01:52:20.304Z,30.75
2019-04-22T01:55:04.327Z,30.91
2019-04-22T01:57:37.715Z,31.11
2019-04-22T02:00:09.153Z,30.66
2019-04-22T02:02:59.160Z,30.84
2019-04-22T02:05:26.787Z,30.82
2019-04-22T02:08:09.642Z,30.82
2019-04-22T02:13:06.698Z,31.52
2019-04-22T02:15:47.347Z,31.54
2019-04-22T02:18:24.417Z,30.88
2019-04-22T02:20:48.829Z,30.88
2019-04-22T02:23:47.130Z,31.08
2019-04-22T02:26:07.611Z,31.41
2019-04-22T02:31:25.866Z,32.11
2019-04-22T02:34:09.588Z,32.19
2019-04-22T02:36:30.399Z,32.28
2019-04-22T02:39:07.136Z,31.86
2019-04-22T02:41:31.250Z,31.77
2019-04-22T02:44:13.426Z,31.99
2019-04-22T02:47:11.853Z,32.95
2019-04-22T02:49:27.066Z,32.49
2019-04-22T02:51:52.215Z,33.01
2019-04-22T02:54:38.364Z,33.24
2019-04-22T02:57:10.133Z,32.19
2019-04-22T02:59:39.698Z,32.03
2019-04-22T03:05:36.537Z,32.63
2019-04-22T03:08:10.812Z,32.11
2019-04-22T03:10:53.607Z,31.61
2019-04-22T03:13:21.277Z,31.73
2019-04-22T03:15:53.175Z,31.90
2019-04-22T03:18:35.969Z,31.62
2019-04-22T03:20:58.245Z,31.96
2019-04-22T03:28:47.851Z,31.49
2019-04-22T03:32:17.331Z,31.33
2019-04-22T03:39:45.660Z,31.38
2019-04-22T03:44:50.167Z,31.77
2019-04-22T03:47:29.111Z,31.76
2019-04-22T03:50:04.139Z,31.31
2019-04-22T03:52:26.979Z,31.22
2019-04-22T04:03:04.995Z,32.04
2019-04-22T04:05:50.341Z,31.65
2019-04-22T04:08:17.339Z,32.01
2019-04-22T04:10:57.818Z,31.72
2019-04-22T04:13:41.398Z,31.95
2019-04-22T04:15:57.622Z,31.47
2019-04-22T04:21:34.860Z,32.66
2019-04-22T04:26:28.867Z,32.42
2019-04-22T04:35:05.360Z,32.80
2019-04-22T04:40:07.476Z,32.96
2019-04-22T04:50:27.816Z,32.95
2019-04-22T04:55:49.118Z,32.94
2019-04-22T05:03:32.718Z,32.55
2019-04-22T05:06:05.561Z,32.87
2019-04-22T05:09:00.909Z,33.05
2019-04-22T05:14:02.540Z,32.46
2019-04-22T05:19:02.386Z,32.52
2019-04-22T05:24:09.586Z,33.69
2019-04-22T05:26:46.628Z,32.34
2019-04-22T05:29:15.170Z,32.56
2019-04-22T05:31:52.079Z,32.84
2019-04-22T05:34:16.303Z,32.90
2019-04-22T05:39:25.034Z,32.78
2019-04-22T05:41:54.750Z,32.93
2019-04-22T05:44:29.477Z,32.74
2019-04-22T05:47:09.934Z,32.16
2019-04-22T05:49:35.126Z,32.52
2019-04-22T05:52:14.762Z,32.16
2019-04-22T05:54:54.969Z,31.67
2019-04-22T05:57:23.365Z,32.78
2019-04-22T06:00:07.880Z,32.68
2019-04-22T06:05:11.939Z,32.42
2019-04-22T06:07:47.182Z,32.31
2019-04-22T06:10:53.841Z,32.02
2019-04-22T06:12:52.410Z,31.97
2019-04-22T06:15:36.244Z,31.75
2019-04-22T06:18:24.896Z,31.62
2019-04-22T06:21:05.986Z,31.43
2019-04-22T06:26:35.896Z,31.38
2019-04-22T06:29:11.911Z,31.20
2019-04-22T06:32:06.953Z,31.63
2019-04-22T06:34:17.217Z,32.06
2019-04-22T06:36:54.204Z,32.06
2019-04-22T06:42:00.972Z,31.93
2019-04-22T06:44:36.866Z,31.52
2019-04-22T06:47:40.148Z,32.31
2019-04-22T06:49:41.606Z,32.15
2019-04-22T06:52:18.322Z,32.02
2019-04-22T06:54:50.398Z,30.85
2019-04-22T06:57:19.632Z,31.10
2019-04-22T06:59:59.008Z,32.25
2019-04-22T07:05:01.766Z,31.78
2019-04-22T07:07:34.835Z,30.98
2019-04-22T07:10:22.225Z,30.98
2019-04-22T07:12:41.853Z,32.39
2019-04-22T07:15:23.159Z,31.99
2019-04-22T07:17:58.407Z,31.45
2019-04-22T07:20:30.537Z,31.62
2019-04-22T07:23:04.476Z,32.03
2019-04-22T07:25:38.224Z,30.97
2019-04-22T07:28:08.316Z,30.97
2019-04-22T07:31:01.865Z,31.27
2019-04-22T07:33:19.423Z,32.38
2019-04-22T07:36:08.461Z,30.84
2019-04-22T07:40:56.158Z,31.30
2019-04-22T07:46:12.046Z,30.39
2019-04-22T07:48:59.428Z,30.08
2019-04-22T07:51:36.731Z,29.22
2019-04-22T07:54:39.683Z,29.07
2019-04-22T07:57:18.433Z,29.43
2019-04-22T07:59:46.955Z,29.25
2019-04-22T08:02:30.257Z,29.71
2019-04-22T08:05:09.899Z,28.34
2019-04-22T08:12:34.923Z,28.36
2019-04-22T08:15:06.101Z,28.46
2019-04-22T08:20:20.100Z,28.92
2019-04-22T08:22:53.624Z,27.13
2019-04-22T08:25:18.115Z,27.73
2019-04-22T08:27:50.514Z,27.57
2019-04-22T08:30:28.859Z,27.21
2019-04-22T08:33:01.055Z,27.72
2019-04-22T08:38:09.969Z,26.13
2019-04-22T08:40:47.273Z,25.24
2019-04-22T08:43:27.060Z,24.54
2019-04-22T08:45:50.040Z,24.62
2019-04-22T08:48:23.096Z,24.32
2019-04-22T08:51:00.610Z,23.52
2019-04-22T08:53:35.883Z,23.54
2019-04-22T08:56:17.156Z,23.18
2019-04-22T08:58:31.702Z,22.85
2019-04-22T09:01:11.266Z,22.97
2019-04-22T09:03:45.562Z,22.24
2019-04-22T09:06:35.455Z,21.98
2019-04-22T09:09:01.429Z,21.74
2019-04-22T09:14:09.770Z,22.36
2019-04-22T09:19:12.572Z,21.49
2019-04-22T09:21:54.424Z,21.42
2019-04-22T09:24:23.377Z,21.37
2019-04-22T09:27:05.569Z,20.79
2019-04-22T09:29:34.193Z,20.71
2019-04-22T09:32:11.587Z,20.34
2019-04-22T09:34:47.280Z,19.92
2019-04-22T09:37:30.460Z,19.83
2019-04-22T09:42:24.058Z,19.67
2019-04-22T09:44:51.910Z,19.75
2019-04-22T09:47:35.974Z,20.05
2019-04-22T09:50:26.097Z,20.52
2019-04-22T09:52:45.597Z,19.53
2019-04-22T09:57:47.156Z,19.47
2019-04-22T10:00:22.949Z,18.98
2019-04-22T10:03:03.465Z,18.57
2019-04-22T10:08:10.665Z,17.77
2019-04-22T10:10:46.469Z,17.85
2019-04-22T10:13:19.179Z,17.58
2019-04-22T10:15:55.873Z,16.94
2019-04-22T10:18:38.725Z,16.30
2019-04-22T10:21:35.585Z,15.91
2019-04-22T10:23:59.576Z,16.63
2019-04-22T10:26:36.523Z,17.40
2019-04-22T10:29:05.919Z,16.64
2019-04-22T10:34:03.892Z,16.46
2019-04-22T10:36:23.563Z,16.74
2019-04-22T10:39:00.556Z,16.06
2019-04-22T10:41:34.599Z,16.36
2019-04-22T10:44:08.795Z,16.11
2019-04-22T10:46:42.296Z,16.20
2019-04-22T10:49:12.752Z,15.69
2019-04-22T10:51:44.558Z,15.31
2019-04-22T10:54:20.514Z,14.98
2019-04-22T10:56:52.903Z,14.61
2019-04-22T10:59:24.765Z,14.72
2019-04-22T11:01:55.057Z,15.00
2019-04-22T11:04:26.078Z,14.31
2019-04-22T11:07:01.976Z,14.82
2019-04-22T11:09:45.428Z,13.91
2019-04-22T11:12:11.672Z,13.27
2019-04-22T11:14:41.154Z,13.52
2019-04-22T11:17:13.501Z,13.21
2019-04-22T11:19:45.815Z,13.94
2019-04-22T11:22:22.961Z,13.32
2019-04-22T11:24:50.954Z,13.82
2019-04-22T11:27:23.246Z,13.87
2019-04-22T11:29:55.511Z,13.72
2019-04-22T11:32:28.936Z,13.39
2019-04-22T11:34:59.338Z,13.73
2019-04-22T11:37:32.767Z,12.52
2019-04-22T11:40:21.575Z,12.33
2019-04-22T11:42:46.030Z,13.07
2019-04-22T11:45:21.559Z,12.36
2019-04-22T11:47:53.457Z,11.99
2019-04-22T11:50:28.091Z,12.19
2019-04-22T11:52:58.821Z,12.50
2019-04-22T11:55:37.012Z,12.12
2019-04-22T11:58:08.697Z,11.85
2019-04-22T12:00:43.226Z,12.43
2019-04-22T12:03:14.982Z,11.44
2019-04-22T12:05:48.079Z,11.44
2019-04-22T12:08:22.761Z,11.55
2019-04-22T12:10:58.155Z,11.07
2019-04-22T12:13:28.184Z,11.78
2019-04-22T12:15:59.091Z,10.61
2019-04-22T12:18:31.169Z,10.75
2019-04-22T12:21:03.609Z,10.20
2019-04-22T12:23:37.078Z,9.92
2019-04-22T12:26:14.096Z,10.04
2019-04-22T12:28:44.748Z,10.24
2019-04-22T12:31:15.847Z,10.10
2019-04-22T12:33:47.662Z,10.67
2019-04-22T12:36:20.227Z,10.68
2019-04-22T12:38:58.000Z,11.29
2019-04-22T12:41:51.976Z,10.85
2019-04-22T12:44:30.448Z,11.17
2019-04-22T12:47:06.127Z,10.60
2019-04-22T12:49:49.299Z,10.20
2019-04-22T12:52:30.573Z,10.30
2019-04-22T12:54:55.170Z,10.27
2019-04-22T12:57:28.560Z,10.05
2019-04-22T13:00:03.644Z,9.30
2019-04-22T13:02:36.752Z,9.78
2019-04-22T13:05:12.438Z,8.48
2019-04-22T13:07:44.203Z,8.67
2019-04-22T13:10:17.774Z,8.26
2019-04-22T13:12:50.989Z,8.13
2019-04-22T13:15:23.907Z,9.09
2019-04-22T13:18:09.833Z,8.96
2019-04-22T13:20:34.536Z,9.29
2019-04-22T13:23:05.221Z,9.02
2019-04-22T13:25:38.881Z,9.84
2019-04-22T13:28:13.307Z,8.40
2019-04-22T13:30:48.633Z,7.75
2019-04-22T13:33:21.282Z,8.45
2019-04-22T13:35:52.295Z,7.92
2019-04-22T13:38:24.852Z,7.39
2019-04-22T13:41:09.823Z,6.84
2019-04-22T13:43:31.465Z,6.81
2019-04-22T13:46:14.462Z,6.24
2019-04-22T13:49:09.349Z,5.82
2019-04-22T13:51:53.086Z,6.58
2019-04-22T13:54:50.422Z,5.84
2019-04-22T13:56:56.978Z,5.71
2019-04-22T13:59:39.868Z,5.19
2019-04-22T14:02:24.459Z,4.76
2019-04-22T14:05:02.044Z,4.12
2019-04-22T14:07:43.332Z,4.25
2019-04-22T14:10:26.833Z,3.93
2019-04-22T14:13:00.199Z,3.95
2019-04-22T14:15:33.972Z,3.71
2019-04-22T14:18:07.258Z,3.77
2019-04-22T14:20:38.786Z,3.56
2019-04-22T14:23:12.286Z,3.49
2019-04-22T14:25:43.059Z,3.22
2019-04-22T14:28:17.577Z,3.55
2019-04-22T14:30:50.603Z,3.44
2019-04-22T14:33:22.652Z,3.27
2019-04-22T14:35:53.833Z,3.16
2019-04-22T14:38:25.847Z,3.37
2019-04-22T14:40:58.576Z,2.98
2019-04-22T14:43:59.975Z,2.73
2019-04-22T14:46:35.113Z,3.11
2019-04-22T14:49:02.907Z,3.21
2019-04-22T14:51:31.920Z,3.89
2019-04-22T14:54:05.299Z,4.12
2019-04-22T14:56:28.664Z,4.28
2019-04-22T14:59:20.855Z,4.32
2019-04-22T15:01:59.395Z,4.09
2019-04-22T15:04:33.067Z,4.06
2019-04-22T15:07:08.882Z,4.80
2019-04-22T15:09:39.878Z,4.47
2019-04-22T15:12:21.706Z,4.12
2019-04-22T15:14:47.824Z,3.70
2019-04-22T15:17:40.917Z,3.57
2019-04-22T15:20:25.890Z,3.79
2019-04-22T15:23:00.389Z,3.83
2019-04-22T15:25:34.838Z,4.19
2019-04-22T15:28:13.314Z,5.00
2019-04-22T15:30:47.725Z,6.81
2019-04-22T15:33:21.294Z,7.42
2019-04-22T15:35:53.578Z,7.56
2019-04-22T15:38:28.265Z,8.34
2019-04-22T15:41:00.767Z,9.06
2019-04-22T15:43:35.495Z,9.62
2019-04-22T15:46:11.749Z,9.74
2019-04-22T15:49:18.065Z,10.22
2019-04-22T15:52:12.391Z,10.31
2019-04-22T15:55:06.756Z,11.35
2019-04-22T15:57:39.448Z,11.74
2019-04-22T16:00:36.758Z,11.81
2019-04-22T16:02:59.625Z,11.94
2019-04-22T16:05:32.266Z,12.41
2019-04-22T16:08:06.703Z,12.94
2019-04-22T16:10:39.963Z,12.47
2019-04-22T16:13:17.283Z,12.67
2019-04-22T16:15:46.668Z,12.61
2019-04-22T16:18:20.223Z,12.84
2019-04-22T16:20:54.183Z,13.99
2019-04-22T16:23:52.116Z,13.69
2019-04-22T16:26:46.652Z,14.22
2019-04-22T16:29:19.190Z,13.73
2019-04-22T16:31:51.529Z,13.66
2019-04-22T16:34:23.716Z,13.96
2019-04-22T16:36:56.744Z,14.02
2019-04-22T16:39:28.835Z,14.66
2019-04-22T16:42:02.633Z,15.28
2019-04-22T16:44:34.672Z,15.08
2019-04-22T16:47:05.904Z,14.87
2019-04-22T16:49:41.537Z,14.52
2019-04-22T16:52:21.903Z,14.50
2019-04-22T16:54:54.866Z,14.56
2019-04-22T16:57:33.712Z,14.95
2019-04-22T17:00:04.752Z,14.76
2019-04-22T17:03:16.285Z,15.07
2019-04-22T17:06:11.849Z,14.97
2019-04-22T17:08:55.161Z,15.46
2019-04-22T17:11:27.618Z,15.55
2019-04-22T17:13:59.334Z,15.70
2019-04-22T17:16:30.629Z,15.57
2019-04-22T17:19:02.535Z,15.79
2019-04-22T17:21:35.519Z,15.64
2019-04-22T17:24:09.694Z,16.19
2019-04-22T17:26:40.054Z,15.98
2019-04-22T17:29:20.907Z,16.29
2019-04-22T17:32:00.366Z,16.11
2019-04-22T17:34:31.777Z,16.30
2019-04-22T17:37:15.490Z,16.51
2019-04-22T17:39:57.389Z,16.64
2019-04-22T17:42:39.874Z,16.58
2019-04-22T17:45:31.349Z,16.51
2019-04-22T17:48:18.344Z,16.58
2019-04-22T17:50:53.880Z,16.76
2019-04-22T17:56:28.237Z,17.04
2019-04-22T17:59:18.073Z,17.00
2019-04-22T18:01:45.089Z,16.77
2019-04-22T18:04:02.939Z,16.73
2019-04-22T18:07:07.383Z,17.14
2019-04-22T18:09:51.463Z,17.29
2019-04-22T18:12:16.225Z,17.38
2019-04-22T18:17:25.458Z,17.34
2019-04-22T18:19:51.847Z,17.32
2019-04-22T18:22:22.638Z,17.73
2019-04-22T18:24:52.930Z,17.53
2019-04-22T18:30:06.409Z,17.60
2019-04-22T18:32:43.860Z,17.71
2019-04-22T18:35:20.438Z,18.06
2019-04-22T18:37:54.819Z,18.18
2019-04-22T18:40:24.265Z,17.49
2019-04-22T18:43:03.659Z,17.91
2019-04-22T18:45:54.868Z,18.04
2019-04-22T18:48:02.916Z,17.81
2019-04-22T18:50:53.281Z,17.98
2019-04-22T18:54:00.140Z,18.00
2019-04-22T19:00:21.560Z,18.06
2019-04-22T19:03:05.277Z,17.96
2019-04-22T19:05:54.381Z,18.06
2019-04-22T19:08:29.282Z,17.98
2019-04-22T19:11:05.020Z,17.80
2019-04-22T19:14:07.621Z,18.51
2019-04-22T19:16:45.596Z,19.07
2019-04-22T19:19:38.358Z,17.80
2019-04-22T19:22:07.652Z,18.20
2019-04-22T19:24:41.865Z,18.20
2019-04-22T19:27:18.748Z,18.49
2019-04-22T19:29:54.005Z,18.54
2019-04-22T19:32:25.363Z,18.29
2019-04-22T19:34:52.718Z,18.51
2019-04-22T19:37:28.477Z,18.42
2019-04-22T19:40:09.547Z,18.01
2019-04-22T19:42:43.256Z,18.25
2019-04-22T19:45:14.744Z,18.29
2019-04-22T19:47:50.441Z,17.92
2019-04-22T19:50:23.013Z,17.87
2019-04-22T19:52:56.751Z,18.20
2019-04-22T19:55:23.837Z,18.00
2019-04-22T19:57:54.576Z,18.16
2019-04-22T20:00:37.490Z,18.08
2019-04-22T20:03:57.994Z,17.83
2019-04-22T20:06:52.276Z,17.83
2019-04-22T20:09:46.760Z,17.96
2019-04-22T20:12:31.823Z,17.74
2019-04-22T20:20:42.121Z,18.03
2019-04-22T20:23:02.358Z,18.29
2019-04-22T20:25:35.885Z,18.56
2019-04-22T20:28:17.711Z,17.97
2019-04-22T20:30:46.719Z,18.31
2019-04-22T20:33:18.658Z,18.03
2019-04-22T20:35:52.114Z,18.48
2019-04-22T20:38:24.876Z,18.08
2019-04-22T20:40:58.212Z,18.42
2019-04-22T20:43:43.132Z,18.20
2019-04-22T20:46:11.264Z,18.43
2019-04-22T20:48:48.461Z,18.53
2019-04-22T20:51:17.139Z,18.55
2019-04-22T20:53:56.539Z,18.58
2019-04-22T20:56:25.160Z,18.60
2019-04-22T20:59:02.115Z,19.03
2019-04-22T21:01:36.904Z,18.93
2019-04-22T21:03:59.217Z,18.69
2019-04-22T21:06:44.527Z,18.75
2019-04-22T21:09:22.117Z,19.60
2019-04-22T21:11:52.145Z,19.51
2019-04-22T21:14:27.449Z,19.36
2019-04-22T21:17:00.410Z,19.46
2019-04-22T21:19:51.757Z,19.30
2019-04-22T21:22:18.078Z,19.50
2019-04-22T21:24:47.552Z,19.17
2019-04-22T21:27:32.507Z,19.42
2019-04-22T21:29:52.282Z,19.37
2019-04-22T21:32:33.947Z,19.52
2019-04-22T21:35:18.573Z,19.67
2019-04-22T21:37:45.824Z,19.83
2019-04-22T21:40:20.206Z,19.67
2019-04-22T21:42:59.845Z,19.61
2019-04-22T21:45:30.680Z,19.86
2019-04-22T21:48:20.661Z,20.19
2019-04-22T21:50:54.324Z,19.95
2019-04-22T21:53:25.513Z,20.44
2019-04-22T21:56:00.253Z,20.96
2019-04-22T21:58:38.100Z,20.66
2019-04-22T22:01:29.125Z,20.23
2019-04-22T22:03:55.153Z,20.78
2019-04-22T22:06:19.530Z,20.17
2019-04-22T22:09:01.011Z,20.40
2019-04-22T22:11:35.824Z,20.38
2019-04-22T22:14:08.497Z,20.12
2019-04-22T22:16:37.486Z,20.40
2019-04-22T22:19:11.476Z,20.86
2019-04-22T22:21:51.432Z,20.93
2019-04-22T22:24:22.648Z,20.82
2019-04-22T22:26:55.301Z,20.95
2019-04-22T22:29:43.605Z,21.62
2019-04-22T22:32:12.881Z,21.17
2019-04-22T22:34:43.494Z,21.35
2019-04-22T22:37:07.716Z,21.19
2019-04-22T22:39:41.771Z,21.39
2019-04-22T22:42:03.827Z,22.17
2019-04-22T22:44:39.210Z,21.39
2019-04-22T22:47:25.863Z,22.23
2019-04-22T22:50:03.251Z,22.19
2019-04-22T22:53:07.862Z,22.40
2019-04-22T22:55:21.683Z,21.98
2019-04-22T22:58:00.931Z,22.34
2019-04-22T23:00:28.225Z,22.49
2019-04-22T23:03:36.341Z,22.17
2019-04-22T23:06:15.675Z,22.39
2019-04-22T23:08:51.723Z,22.39
2019-04-22T23:11:34.881Z,22.61
2019-04-22T23:14:05.385Z,22.54
2019-04-22T23:16:31.508Z,22.42
2019-04-22T23:19:06.439Z,22.47
2019-04-22T23:21:45.970Z,22.15
2019-04-22T23:24:55.506Z,22.56
2019-04-22T23:30:25.205Z,22.82
2019-04-22T23:33:13.235Z,23.36
2019-04-22T23:35:54.878Z,23.00
2019-04-22T23:38:42.523Z,23.00
2019-04-22T23:41:39.244Z,23.39
2019-04-22T23:46:52.172Z,23.68
2019-04-22T23:49:25.039Z,23.37
2019-04-22T23:52:10.172Z,23.22
2019-04-22T23:54:39.568Z,23.22
2019-04-22T23:57:31.375Z,23.15
